Dexter, Maine
Current Conditions -  °F | °C
As of 7:43 AM on Thursday 23 Oct 2014 (Local Time) from KBGR Reporting Station
Heavy Rain Heavy Rain  
Wind Chill:   Ceiling: 1200
Heat Index:   Visibility: 2mi
Dew Point:   Wind: 14mph
Humidity: 93%   Direction: 30°NNE
Pressure: 29.96"   Gusts: NA
Location:  45.02°N, 69.28°W
Report Text: KBGR 231143Z 03012KT 2SM R15/4500VP6000FT +RA BR FEW007 OVC012 09/08 A2996 RMK AO2 P0009 T00890078
Loading
Personal Weather Stations






























Interactive Weather Map
Tropical Storm Tracking
New forecast layout! Learn more

10-Day Weather Forecast

Advertisements
Track Severe Weather on mobile